Time;durP1;ratioP1;P1;durP2;ratioP2;P2;SDS_P1;SDS_P2;PMS_P1;PMS_P2;Temp;Humidity;BMP_temperature;BMP_pressure;BME280_temperature;BME280_humidity;BME280_pressure;Samples;Min_cycle;Max_cycle;Signal;HPM_P1;HPM_P2
2022/03/10 00:02:10;;;;;;;;;;;;;;;19.41;38.48;100628.50;4403176;32;19954;-72
2022/03/10 00:04:36;;;;;;;;;;;;;;;19.39;38.20;100628.25;4403114;32;20108;-73
2022/03/10 00:07:02;;;;;;;;;;;;;;;19.45;38.19;100634.78;4400500;32;19973;-73
2022/03/10 00:09:28;;;;;;;;;;;;;;;19.79;37.65;100636.72;4399742;32;19998;-73
2022/03/10 00:11:54;;;;;;;;;;;;;;;19.82;37.23;100638.53;4402104;32;20066;-73
2022/03/10 00:14:20;;;;;;;;;;;;;;;19.93;37.06;100632.94;4399108;32;20348;-72
2022/03/10 00:16:46;;;;;;;;;;;;;;;20.00;37.04;100634.56;4402282;32;19994;-72
2022/03/10 00:19:12;;;;;;;;;;;;;;;20.01;37.06;100631.19;4402409;32;20009;-73
2022/03/10 00:21:39;;;;;;;;;;;;;;;19.80;37.37;100624.75;4387582;32;20365;-73
2022/03/10 00:24:04;;;;;;;;;;;;;;;20.05;36.76;100617.47;4402384;32;19982;-72
2022/03/10 00:26:30;;;;;;;;;;;;;;;19.89;37.22;100623.81;4403343;32;19960;-72
2022/03/10 00:28:55;;;;;;;;;;;;;;;19.79;37.30;100633.84;4398087;32;20302;-72
2022/03/10 00:31:21;;;;;;;;;;;;;;;19.78;37.38;100624.50;4397234;32;20005;-72
2022/03/10 00:33:47;;;;;;;;;;;;;;;20.00;37.08;100617.44;4400390;32;19949;-72
2022/03/10 00:36:13;;;;;;;;;;;;;;;19.85;37.39;100626.09;4404233;32;20001;-72
2022/03/10 00:38:39;;;;;;;;;;;;;;;19.71;37.50;100624.97;4401353;32;20132;-72
2022/03/10 00:41:04;;;;;;;;;;;;;;;19.68;37.43;100637.37;4397810;32;20326;-70
2022/03/10 00:43:30;;;;;;;;;;;;;;;19.69;37.60;100632.44;4400280;32;19976;-72
2022/03/10 00:45:55;;;;;;;;;;;;;;;19.84;37.34;100633.09;4398149;32;19993;-72
2022/03/10 00:48:21;;;;;;;;;;;;;;;19.90;37.25;100633.16;4398214;32;20408;-72
2022/03/10 00:50:46;;;;;;;;;;;;;;;19.95;37.20;100636.09;4401389;32;19950;-72
2022/03/10 00:53:12;;;;;;;;;;;;;;;19.98;37.24;100640.00;4400658;32;20020;-72
2022/03/10 00:55:37;;;;;;;;;;;;;;;20.12;37.09;100639.09;4404336;32;19941;-72
2022/03/10 00:58:03;;;;;;;;;;;;;;;20.24;36.84;100637.88;4397244;32;20010;-72
2022/03/10 01:00:29;;;;;;;;;;;;;;;20.39;36.64;100641.38;4401732;32;20002;-72
2022/03/10 01:02:55;;;;;;;;;;;;;;;20.16;37.00;100640.47;4401082;32;20062;-72
2022/03/10 01:05:21;;;;;;;;;;;;;;;20.40;36.56;100631.53;4400782;32;19997;-72
2022/03/10 01:07:47;;;;;;;;;;;;;;;20.30;36.66;100633.00;4399184;32;20439;-72
2022/03/10 01:10:13;;;;;;;;;;;;;;;19.95;37.23;100635.28;4398648;32;20626;-72
2022/03/10 01:12:42;;;;;;;;;;;;;;;20.13;36.95;100632.91;4401407;32;19954;-72
2022/03/10 01:15:09;;;;;;;;;;;;;;;20.05;37.30;100636.66;4403388;32;20016;-72
2022/03/10 01:17:35;;;;;;;;;;;;;;;19.98;37.35;100642.84;4387153;32;20497;-72
2022/03/10 01:20:02;;;;;;;;;;;;;;;19.77;37.81;100647.84;4399483;32;19969;-72
2022/03/10 01:22:27;;;;;;;;;;;;;;;19.94;37.60;100651.63;4400261;32;19989;-72
2022/03/10 01:24:53;;;;;;;;;;;;;;;19.85;37.51;100642.47;4400353;32;19989;-72
2022/03/10 01:27:38;;;;;;;;;;;;;;;19.85;37.62;100642.47;4400707;32;19969;-72
2022/03/10 01:30:22;;;;;;;;;;;;;;;19.82;37.75;100641.38;4399508;32;19972;-72
2022/03/10 01:33:07;;;;;;;;;;;;;;;19.71;38.00;100636.38;4401412;32;19999;-72
2022/03/10 01:35:50;;;;;;;;;;;;;;;19.43;38.17;100626.72;4400641;32;19984;-72
2022/03/10 01:38:39;;;;;;;;;;;;;;;19.23;38.99;100621.03;4398279;32;20039;-72
2022/03/10 01:41:23;;;;;;;;;;;;;;;19.24;39.17;100621.81;4399388;32;19961;-72
2022/03/10 01:44:09;;;;;;;;;;;;;;;19.17;39.24;100633.66;4401048;32;19979;-72
2022/03/10 01:46:53;;;;;;;;;;;;;;;19.29;38.89;100627.63;4402488;32;19968;-72
2022/03/10 01:49:37;;;;;;;;;;;;;;;19.26;39.04;100620.06;4404873;32;20322;-72
2022/03/10 01:52:21;;;;;;;;;;;;;;;19.07;39.28;100615.91;4402983;32;19968;-72
2022/03/10 01:55:06;;;;;;;;;;;;;;;19.21;39.09;100620.72;4400967;32;20357;-72
2022/03/10 01:57:50;;;;;;;;;;;;;;;19.30;39.01;100634.88;4404170;32;19967;-72
2022/03/10 02:00:34;;;;;;;;;;;;;;;19.55;38.58;100644.78;4401993;32;20354;-72
2022/03/10 02:03:18;;;;;;;;;;;;;;;19.55;38.55;100642.69;4403218;32;20245;-72
2022/03/10 02:06:02;;;;;;;;;;;;;;;19.44;38.88;100633.22;4401100;32;20440;-72
2022/03/10 02:11:51;;;;;;;;;;;;;;;19.21;39.06;100628.53;4402428;32;21026;-72
2022/03/10 02:17:39;;;;;;;;;;;;;;;19.13;39.29;100624.53;4401319;32;19968;-72
2022/03/10 02:20:23;;;;;;;;;;;;;;;19.14;39.29;100620.37;4402151;32;20600;-72
2022/03/10 02:23:08;;;;;;;;;;;;;;;19.22;39.19;100612.97;4401084;32;19964;-72
2022/03/10 02:25:52;;;;;;;;;;;;;;;19.03;39.63;100631.66;4404880;32;20021;-72
2022/03/10 02:28:36;;;;;;;;;;;;;;;18.86;39.61;100625.75;4402356;32;19967;-72
2022/03/10 02:31:20;;;;;;;;;;;;;;;18.89;39.91;100632.50;4401435;32;19991;-72
2022/03/10 02:34:04;;;;;;;;;;;;;;;18.73;40.13;100621.66;4404667;32;19966;-72
2022/03/10 02:36:48;;;;;;;;;;;;;;;18.92;39.95;100623.75;4403023;32;20026;-72
2022/03/10 02:39:32;;;;;;;;;;;;;;;19.06;39.85;100622.91;4401869;32;19985;-72
2022/03/10 02:42:16;;;;;;;;;;;;;;;18.65;40.54;100617.69;4401365;32;19973;-72
2022/03/10 02:45:01;;;;;;;;;;;;;;;19.01;39.94;100615.06;4400752;32;20028;-72
2022/03/10 02:47:45;;;;;;;;;;;;;;;18.79;40.33;100613.97;4404677;32;20314;-72
2022/03/10 02:50:29;;;;;;;;;;;;;;;18.89;40.14;100623.97;4401143;32;20004;-72
2022/03/10 02:53:15;;;;;;;;;;;;;;;19.25;39.66;100612.75;4404317;32;20023;-72
2022/03/10 02:55:59;;;;;;;;;;;;;;;19.13;39.59;100610.25;4402209;32;20019;-72
2022/03/10 02:58:43;;;;;;;;;;;;;;;19.14;39.75;100614.69;4403654;32;19980;-72
2022/03/10 03:01:28;;;;;;;;;;;;;;;19.12;40.02;100620.88;4401332;32;20052;-71
2022/03/10 03:04:12;;;;;;;;;;;;;;;19.11;39.96;100612.81;4403160;32;20493;-71
2022/03/10 03:06:56;;;;;;;;;;;;;;;19.05;40.18;100617.69;4405764;32;20070;-71
2022/03/10 03:09:40;;;;;;;;;;;;;;;18.94;40.55;100611.84;4401412;32;21193;-71
2022/03/10 03:12:24;;;;;;;;;;;;;;;18.87;40.63;100601.62;4400419;32;20004;-71
2022/03/10 03:15:08;;;;;;;;;;;;;;;18.88;40.51;100603.22;4402617;32;20000;-71
2022/03/10 03:17:52;;;;;;;;;;;;;;;18.68;40.82;100600.34;4401839;32;19989;-71
2022/03/10 03:20:36;;;;;;;;;;;;;;;18.72;40.87;100597.31;4400315;32;20284;-71
2022/03/10 03:23:23;;;;;;;;;;;;;;;18.84;40.78;100599.03;4405916;32;19964;-71
2022/03/10 03:26:07;;;;;;;;;;;;;;;18.96;40.41;100607.22;4398719;32;20085;-71
2022/03/10 03:28:51;;;;;;;;;;;;;;;18.82;40.74;100610.94;4401847;32;19964;-71
2022/03/10 03:31:35;;;;;;;;;;;;;;;18.42;41.08;100608.03;4400263;32;20004;-71
2022/03/10 03:34:19;;;;;;;;;;;;;;;18.61;40.86;100606.50;4405898;32;19996;-71
2022/03/10 03:37:03;;;;;;;;;;;;;;;18.55;40.99;100608.47;4401745;32;19963;-71
2022/03/10 03:39:47;;;;;;;;;;;;;;;18.49;41.11;100619.00;4402071;32;19964;-71
2022/03/10 03:42:34;;;;;;;;;;;;;;;18.64;40.71;100624.66;4401220;32;20362;-71
2022/03/10 03:45:18;;;;;;;;;;;;;;;18.77;40.64;100620.19;4401648;32;20445;-71
2022/03/10 03:48:02;;;;;;;;;;;;;;;18.35;41.49;100624.72;4400737;32;19980;-71
2022/03/10 03:50:46;;;;;;;;;;;;;;;18.82;40.50;100630.88;4403163;32;19999;-71
2022/03/10 03:53:30;;;;;;;;;;;;;;;18.63;41.03;100641.00;4402073;32;19990;-71
2022/03/10 03:56:14;;;;;;;;;;;;;;;18.78;40.72;100644.53;4401173;32;19983;-71
2022/03/10 03:58:58;;;;;;;;;;;;;;;18.92;40.32;100640.87;4403849;32;20309;-71
2022/03/10 04:01:42;;;;;;;;;;;;;;;19.03;40.12;100634.53;4400646;32;20045;-71
2022/03/10 04:04:07;;;;;;;;;;;;;;;19.20;39.77;100635.50;4402352;32;19997;-71
2022/03/10 04:06:33;;;;;;;;;;;;;;;19.32;39.62;100632.31;4402500;32;19938;-71
2022/03/10 04:08:58;;;;;;;;;;;;;;;19.29;39.35;100635.38;4399566;32;20508;-70
2022/03/10 04:11:24;;;;;;;;;;;;;;;19.32;39.17;100640.09;4405205;32;19994;-71
2022/03/10 04:13:50;;;;;;;;;;;;;;;19.28;39.66;100637.47;4400179;32;19966;-71
2022/03/10 04:16:15;;;;;;;;;;;;;;;19.41;39.35;100635.03;4400656;32;19984;-71
2022/03/10 04:18:42;;;;;;;;;;;;;;;19.17;39.72;100637.28;4403239;32;20346;-71
2022/03/10 04:21:12;;;;;;;;;;;;;;;19.27;39.55;100632.25;4401349;32;19989;-71
2022/03/10 04:23:41;;;;;;;;;;;;;;;19.12;39.72;100631.53;4401132;32;20038;-71
2022/03/10 04:26:08;;;;;;;;;;;;;;;19.21;39.72;100632.16;4404430;32;20008;-71
2022/03/10 04:28:33;;;;;;;;;;;;;;;19.25;39.68;100627.03;4402942;32;19997;-71
2022/03/10 04:31:00;;;;;;;;;;;;;;;19.00;39.87;100630.63;4400254;32;19961;-71
2022/03/10 04:33:26;;;;;;;;;;;;;;;19.57;39.09;100633.63;4401175;32;20372;-71
2022/03/10 04:35:53;;;;;;;;;;;;;;;19.22;39.70;100633.72;4400861;32;20005;-71
2022/03/10 04:38:19;;;;;;;;;;;;;;;19.21;39.82;100639.94;4402425;32;19968;-71
2022/03/10 04:40:45;;;;;;;;;;;;;;;19.35;39.49;100642.72;4399224;32;20026;-71
2022/03/10 04:43:10;;;;;;;;;;;;;;;19.17;39.61;100628.72;4400069;32;20045;-71
2022/03/10 04:45:36;;;;;;;;;;;;;;;18.74;40.61;100629.72;4402092;32;19954;-71
2022/03/10 04:48:04;;;;;;;;;;;;;;;19.00;39.80;100633.47;4401384;32;20001;-71
2022/03/10 04:50:30;;;;;;;;;;;;;;;19.08;39.95;100626.03;4402500;32;19985;-71
2022/03/10 04:52:55;;;;;;;;;;;;;;;18.90;40.39;100629.16;4399770;32;20004;-71
2022/03/10 04:55:21;;;;;;;;;;;;;;;18.88;40.31;100628.09;4402289;32;19984;-71
2022/03/10 04:57:48;;;;;;;;;;;;;;;18.63;40.83;100621.03;4404445;32;20399;-71
2022/03/10 05:00:16;;;;;;;;;;;;;;;18.61;40.99;100622.78;4401089;32;19968;-71
2022/03/10 05:02:42;;;;;;;;;;;;;;;18.44;41.40;100621.78;4405581;32;19969;-71
2022/03/10 05:05:08;;;;;;;;;;;;;;;18.39;41.57;100631.03;4400669;32;20421;-71
2022/03/10 05:07:34;;;;;;;;;;;;;;;18.26;41.82;100628.47;4400062;32;19942;-71
2022/03/10 05:09:59;;;;;;;;;;;;;;;18.57;41.08;100627.94;4401671;32;19968;-71
2022/03/10 05:12:25;;;;;;;;;;;;;;;18.52;41.20;100618.00;4399575;32;19981;-71
2022/03/10 05:14:51;;;;;;;;;;;;;;;18.87;40.44;100612.28;4405532;32;19957;-71
2022/03/10 05:17:16;;;;;;;;;;;;;;;19.12;39.93;100618.03;4403643;32;19957;-71
2022/03/10 05:19:42;;;;;;;;;;;;;;;18.98;40.26;100612.41;4400856;32;20005;-71
2022/03/10 05:22:08;;;;;;;;;;;;;;;18.81;40.56;100617.13;4403956;32;19950;-71
2022/03/10 05:24:34;;;;;;;;;;;;;;;19.01;39.85;100603.66;4402621;32;20354;-71
2022/03/10 05:27:00;;;;;;;;;;;;;;;19.17;39.67;100608.75;4405335;32;20001;-71
2022/03/10 05:29:26;;;;;;;;;;;;;;;19.37;39.36;100602.28;4402014;32;20456;-70
2022/03/10 05:31:52;;;;;;;;;;;;;;;19.29;39.52;100598.28;4404811;32;19965;-70
2022/03/10 05:34:18;;;;;;;;;;;;;;;19.15;39.58;100602.75;4405108;32;19962;-70
2022/03/10 05:36:44;;;;;;;;;;;;;;;19.39;39.30;100609.03;4402288;32;20037;-70
2022/03/10 05:39:10;;;;;;;;;;;;;;;19.42;38.87;100604.41;4402991;32;19958;-70
2022/03/10 05:41:35;;;;;;;;;;;;;;;19.46;39.14;100607.81;4404754;32;20036;-71
2022/03/10 05:44:01;;;;;;;;;;;;;;;19.17;39.71;100605.12;4401619;32;19976;-71
2022/03/10 05:46:26;;;;;;;;;;;;;;;18.88;40.41;100605.28;4400843;32;20465;-70
2022/03/10 05:48:52;;;;;;;;;;;;;;;19.07;39.83;100604.50;4403782;32;19969;-70
2022/03/10 05:51:17;;;;;;;;;;;;;;;18.83;40.10;100603.13;4404506;32;20335;-70
2022/03/10 05:53:43;;;;;;;;;;;;;;;18.77;40.48;100594.53;4404464;32;19989;-70
2022/03/10 05:56:08;;;;;;;;;;;;;;;18.94;40.19;100603.28;4402642;32;20001;-70
2022/03/10 05:58:34;;;;;;;;;;;;;;;18.65;40.79;100589.19;4403336;32;19961;-70
2022/03/10 06:01:00;;;;;;;;;;;;;;;18.22;41.67;100588.00;4403250;32;19968;-70
2022/03/10 06:03:25;;;;;;;;;;;;;;;18.18;41.62;100589.47;4405305;32;20324;-71
2022/03/10 06:05:51;;;;;;;;;;;;;;;18.29;41.27;100601.06;4402997;32;20352;-70
2022/03/10 06:08:17;;;;;;;;;;;;;;;18.20;41.86;100601.19;4400523;32;20005;-70
2022/03/10 06:10:43;;;;;;;;;;;;;;;18.58;41.02;100598.12;4403674;32;20056;-70
2022/03/10 06:13:09;;;;;;;;;;;;;;;18.71;40.50;100599.37;4402007;32;20358;-70
2022/03/10 06:15:35;;;;;;;;;;;;;;;18.47;41.19;100595.91;4403830;32;20079;-70
2022/03/10 06:18:00;;;;;;;;;;;;;;;18.83;40.54;100597.44;4405655;32;20197;-71
2022/03/10 06:20:30;;;;;;;;;;;;;;;18.69;40.51;100599.09;4404271;32;19957;-70
2022/03/10 06:22:56;;;;;;;;;;;;;;;18.68;40.56;100596.75;4402113;32;20458;-70
2022/03/10 06:25:21;;;;;;;;;;;;;;;18.90;40.31;100586.37;4404150;32;19957;-70
2022/03/10 06:27:47;;;;;;;;;;;;;;;19.08;39.94;100594.66;4403792;32;19988;-70
2022/03/10 06:30:13;;;;;;;;;;;;;;;19.35;39.36;100599.94;4400597;32;19992;-71
2022/03/10 06:32:39;;;;;;;;;;;;;;;19.43;39.19;100588.84;4403856;32;19993;-71
2022/03/10 06:35:05;;;;;;;;;;;;;;;19.40;39.21;100593.50;4405265;32;20064;-71
2022/03/10 06:37:31;;;;;;;;;;;;;;;19.40;39.21;100599.22;4402028;32;20006;-71
2022/03/10 06:39:57;;;;;;;;;;;;;;;19.27;39.07;100592.31;4404029;32;20376;-71
2022/03/10 06:42:22;;;;;;;;;;;;;;;19.31;39.20;100599.37;4401723;32;20000;-71
2022/03/10 06:44:48;;;;;;;;;;;;;;;18.86;40.09;100599.28;4401740;32;20119;-71
2022/03/10 06:47:14;;;;;;;;;;;;;;;19.00;39.88;100584.97;4403881;32;19976;-70
2022/03/10 06:49:39;;;;;;;;;;;;;;;18.77;40.17;100600.22;4400483;32;19989;-70
2022/03/10 06:52:06;;;;;;;;;;;;;;;18.90;39.96;100594.19;4400765;32;20045;-70
2022/03/10 06:54:32;;;;;;;;;;;;;;;18.18;41.28;100581.72;4401639;32;20393;-70
2022/03/10 06:56:58;;;;;;;;;;;;;;;18.19;41.37;100585.38;4404845;32;19972;-71
2022/03/10 06:59:24;;;;;;;;;;;;;;;18.30;41.21;100588.38;4403292;32;19957;-70
2022/03/10 07:01:49;;;;;;;;;;;;;;;18.39;41.07;100585.44;4401940;32;19969;-70
2022/03/10 07:04:15;;;;;;;;;;;;;;;18.47;40.86;100592.28;4400931;32;19996;-70
2022/03/10 07:06:41;;;;;;;;;;;;;;;18.41;41.03;100585.72;4404958;32;20088;-71
2022/03/10 07:09:06;;;;;;;;;;;;;;;18.34;41.09;100589.75;4402022;32;19965;-70
2022/03/10 07:11:32;;;;;;;;;;;;;;;18.30;41.25;100588.38;4400784;32;20001;-70
2022/03/10 07:13:58;;;;;;;;;;;;;;;18.60;40.62;100581.34;4402971;32;20336;-70
2022/03/10 07:16:24;;;;;;;;;;;;;;;18.40;40.85;100584.12;4402968;32;20294;-71
2022/03/10 07:18:51;;;;;;;;;;;;;;;18.66;40.32;100573.63;4388516;32;20451;-71
2022/03/10 07:21:17;;;;;;;;;;;;;;;18.84;40.10;100585.53;4385217;32;20085;-71
2022/03/10 07:23:43;;;;;;;;;;;;;;;18.96;39.84;100586.47;4401352;32;19997;-71
2022/03/10 07:26:10;;;;;;;;;;;;;;;18.53;40.48;100584.62;4401049;32;19976;-71
2022/03/10 07:28:36;;;;;;;;;;;;;;;18.75;40.05;100588.53;4402371;32;20049;-71
2022/03/10 07:31:01;;;;;;;;;;;;;;;18.63;40.35;100586.84;4398525;32;20687;-71
2022/03/10 07:33:27;;;;;;;;;;;;;;;18.82;40.01;100593.03;4401296;32;19946;-71
2022/03/10 07:35:52;;;;;;;;;;;;;;;18.85;39.96;100604.22;4395674;32;19980;-71
2022/03/10 07:38:18;;;;;;;;;;;;;;;18.96;39.61;100603.59;4399662;32;20025;-71
2022/03/10 07:40:44;;;;;;;;;;;;;;;18.93;39.66;100618.84;4400334;32;20417;-71
2022/03/10 07:43:09;;;;;;;;;;;;;;;18.66;40.06;100617.19;4393311;32;20001;-71
2022/03/10 07:45:35;;;;;;;;;;;;;;;18.70;40.13;100616.97;4399295;32;19986;-72
2022/03/10 07:48:00;;;;;;;;;;;;;;;18.81;39.77;100617.13;4394778;32;20357;-71
2022/03/10 07:50:26;;;;;;;;;;;;;;;18.91;39.59;100619.34;4397235;32;20244;-72
2022/03/10 07:52:52;;;;;;;;;;;;;;;19.00;39.52;100624.91;4397484;32;20009;-71
2022/03/10 07:55:17;;;;;;;;;;;;;;;18.78;39.81;100618.12;4395901;32;20539;-71
2022/03/10 07:57:43;;;;;;;;;;;;;;;18.88;39.66;100611.00;4400710;32;19981;-71
2022/03/10 08:00:09;;;;;;;;;;;;;;;18.90;39.38;100608.44;4396492;32;19999;-72
2022/03/10 08:02:35;;;;;;;;;;;;;;;18.80;39.40;100602.06;4398589;32;19983;-72
2022/03/10 08:05:00;;;;;;;;;;;;;;;18.57;40.11;100603.06;4395458;32;19969;-72
2022/03/10 08:07:26;;;;;;;;;;;;;;;18.76;39.95;100597.88;4393358;32;19975;-72
2022/03/10 08:09:52;;;;;;;;;;;;;;;18.72;39.84;100598.06;4396586;32;20384;-73
2022/03/10 08:12:18;;;;;;;;;;;;;;;18.63;40.23;100600.28;4393513;32;19997;-72
2022/03/10 08:14:43;;;;;;;;;;;;;;;18.57;40.29;100607.97;4395069;32;20115;-72
2022/03/10 08:17:09;;;;;;;;;;;;;;;18.61;40.11;100592.25;4395561;32;19957;-73
2022/03/10 08:19:34;;;;;;;;;;;;;;;18.70;39.92;100612.06;4390435;32;20015;-73
2022/03/10 08:22:00;;;;;;;;;;;;;;;18.96;39.71;100612.91;4395869;32;21056;-73
2022/03/10 08:24:28;;;;;;;;;;;;;;;18.86;39.94;100620.03;4396739;32;20019;-73
2022/03/10 08:26:54;;;;;;;;;;;;;;;19.37;39.08;100622.25;4392028;32;19972;-72
2022/03/10 08:29:20;;;;;;;;;;;;;;;19.88;38.13;100627.19;4396220;32;20004;-72
2022/03/10 08:31:45;;;;;;;;;;;;;;;20.55;37.05;100624.34;4390740;32;20008;-72
2022/03/10 08:34:11;;;;;;;;;;;;;;;20.74;36.32;100630.47;4397214;32;19976;-73
2022/03/10 08:36:36;;;;;;;;;;;;;;;21.11;35.52;100622.59;4394035;32;19993;-72
2022/03/10 08:39:02;;;;;;;;;;;;;;;21.41;35.05;100624.53;4394121;32;19981;-72
2022/03/10 08:41:30;;;;;;;;;;;;;;;21.33;34.97;100620.59;4396296;32;20000;-72
2022/03/10 08:43:56;;;;;;;;;;;;;;;20.93;35.87;100634.47;4397325;32;20025;-72
2022/03/10 08:46:21;;;;;;;;;;;;;;;20.74;36.14;100636.94;4397863;32;20387;-72
2022/03/10 08:48:47;;;;;;;;;;;;;;;20.95;36.04;100632.66;4395960;32;20092;-72
2022/03/10 08:51:12;;;;;;;;;;;;;;;20.43;36.82;100624.81;4395495;32;19981;-72
2022/03/10 08:53:38;;;;;;;;;;;;;;;20.65;36.63;100625.72;4398564;32;19997;-73
2022/03/10 08:56:06;;;;;;;;;;;;;;;20.17;37.90;100616.31;4400675;32;19997;-74
2022/03/10 08:58:32;;;;;;;;;;;;;;;20.57;37.29;100624.63;4400833;32;19997;-73
2022/03/10 09:00:57;;;;;;;;;;;;;;;20.45;37.63;100616.47;4400819;32;20008;-71
2022/03/10 09:03:23;;;;;;;;;;;;;;;20.51;37.15;100611.59;4397980;32;19993;-70
2022/03/10 09:05:49;;;;;;;;;;;;;;;20.70;37.07;100618.47;4401645;32;20383;-70
2022/03/10 09:08:14;;;;;;;;;;;;;;;20.59;37.26;100616.31;4398659;32;19992;-71
2022/03/10 09:10:40;;;;;;;;;;;;;;;20.29;37.82;100611.44;4395996;32;19993;-71
2022/03/10 09:13:06;;;;;;;;;;;;;;;20.48;37.32;100616.25;4398013;32;20089;-70
2022/03/10 09:15:32;;;;;;;;;;;;;;;20.86;37.00;100606.34;4401044;32;20005;-71
2022/03/10 09:17:57;;;;;;;;;;;;;;;20.47;37.34;100613.91;4399825;32;20012;-71
2022/03/10 09:20:23;;;;;;;;;;;;;;;20.28;37.95;100610.66;4401017;32;20014;-71
2022/03/10 09:22:49;;;;;;;;;;;;;;;20.59;37.48;100604.88;4400401;32;20001;-71
2022/03/10 09:25:14;;;;;;;;;;;;;;;20.46;37.62;100600.91;4401810;32;20034;-71
2022/03/10 09:27:40;;;;;;;;;;;;;;;20.24;38.23;100600.75;4389782;32;19961;-71
2022/03/10 09:30:08;;;;;;;;;;;;;;;20.64;37.75;100589.03;4401265;32;20009;-71
2022/03/10 09:32:34;;;;;;;;;;;;;;;20.63;37.73;100598.94;4402820;32;19965;-72
2022/03/10 09:34:59;;;;;;;;;;;;;;;20.55;37.86;100597.81;4401206;32;19985;-71
2022/03/10 09:37:26;;;;;;;;;;;;;;;20.37;38.29;100587.59;4401964;32;20094;-71
2022/03/10 09:39:52;;;;;;;;;;;;;;;20.37;38.12;100589.69;4385944;32;20008;-71
2022/03/10 09:42:20;;;;;;;;;;;;;;;20.76;37.79;100584.94;4400669;32;19969;-71
2022/03/10 09:44:47;;;;;;;;;;;;;;;20.94;37.33;100582.47;4396612;32;20044;-71
2022/03/10 09:47:13;;;;;;;;;;;;;;;20.39;38.60;100582.16;4383893;32;20006;-71
2022/03/10 09:49:40;;;;;;;;;;;;;;;20.02;39.37;100580.56;4398530;32;20043;-71
2022/03/10 09:52:08;;;;;;;;;;;;;;;19.93;39.65;100578.66;4398484;32;20028;-71
2022/03/10 09:54:34;;;;;;;;;;;;;;;20.16;39.38;100573.94;4400396;32;21114;-71
2022/03/10 09:57:00;;;;;;;;;;;;;;;19.85;39.73;100568.22;4402613;32;20358;-71
2022/03/10 09:59:26;;;;;;;;;;;;;;;20.65;38.43;100573.47;4399237;32;20519;-71
2022/03/10 10:01:53;;;;;;;;;;;;;;;20.83;38.15;100570.94;4399724;32;19981;-70
2022/03/10 10:04:20;;;;;;;;;;;;;;;20.65;38.28;100570.62;4402536;32;20124;-70
2022/03/10 10:07:06;;;;;;;;;;;;;;;20.51;38.39;100578.06;4401091;32;20300;-71
2022/03/10 10:09:53;;;;;;;;;;;;;;;21.06;37.82;100569.78;4399694;32;20021;-70
2022/03/10 10:12:22;;;;;;;;;;;;;;;20.92;37.78;100582.16;4400489;32;19957;-71
2022/03/10 10:14:49;;;;;;;;;;;;;;;21.18;37.58;100576.31;4399752;32;20393;-71
2022/03/10 10:17:16;;;;;;;;;;;;;;;21.05;37.56;100562.47;4400705;32;20544;-72
2022/03/10 10:19:42;;;;;;;;;;;;;;;20.76;38.09;100570.66;4396874;32;19961;-70
2022/03/10 10:22:14;;;;;;;;;;;;;;;21.56;36.73;100561.28;4394721;32;20962;-71
2022/03/10 10:24:48;;;;;;;;;;;;;;;21.79;36.32;100567.84;4383213;32;20382;-71
2022/03/10 10:27:15;;;;;;;;;;;;;;;21.66;36.71;100562.59;4400217;32;19961;-71
2022/03/10 10:29:57;;;;;;;;;;;;;;;21.87;36.28;100555.34;4396762;32;20669;-72
2022/03/10 10:32:26;;;;;;;;;;;;;;;21.39;37.09;100557.62;4398512;32;20009;-71
2022/03/10 10:35:08;;;;;;;;;;;;;;;21.97;36.12;100553.81;4400582;32;19966;-71
2022/03/10 10:37:34;;;;;;;;;;;;;;;21.90;35.96;100559.28;4398923;32;19997;-71
2022/03/10 10:39:59;;;;;;;;;;;;;;;21.88;35.90;100548.34;4399402;32;19995;-70
2022/03/10 10:42:30;;;;;;;;;;;;;;;22.07;35.78;100548.56;4385207;32;20016;-73
2022/03/10 10:44:56;;;;;;;;;;;;;;;21.53;36.56;100570.91;4385206;32;19989;-73
2022/03/10 10:47:22;;;;;;;;;;;;;;;21.81;36.21;100545.97;4400502;32;20355;-73
2022/03/10 10:50:05;;;;;;;;;;;;;;;22.41;35.09;100550.88;4395883;32;20012;-72
2022/03/10 10:52:38;;;;;;;;;;;;;;;22.44;35.24;100549.03;4396765;32;20473;-71
2022/03/10 10:55:09;;;;;;;;;;;;;;;23.17;33.98;100540.38;4401503;32;20020;-72
2022/03/10 10:57:36;;;;;;;;;;;;;;;23.53;33.23;100547.78;4395972;32;20040;-72
2022/03/10 11:00:05;;;;;;;;;;;;;;;23.86;32.86;100552.47;4383111;32;20028;-71
2022/03/10 11:02:31;;;;;;;;;;;;;;;23.94;32.39;100549.81;4401837;32;20054;-71
2022/03/10 11:04:58;;;;;;;;;;;;;;;24.50;31.65;100545.09;4400598;32;20009;-71
2022/03/10 11:07:24;;;;;;;;;;;;;;;24.10;32.21;100540.28;4398984;32;20293;-71
2022/03/10 11:09:51;;;;;;;;;;;;;;;23.62;33.11;100549.53;4401095;32;20658;-72
2022/03/10 11:12:18;;;;;;;;;;;;;;;23.99;32.46;100541.16;4401498;32;20108;-71
2022/03/10 11:14:44;;;;;;;;;;;;;;;23.42;33.37;100538.47;4401742;32;19980;-72
2022/03/10 11:17:12;;;;;;;;;;;;;;;23.15;33.74;100543.03;4397724;32;20405;-72
2022/03/10 11:19:46;;;;;;;;;;;;;;;23.42;33.53;100529.84;4400726;32;19973;-72
2022/03/10 11:22:17;;;;;;;;;;;;;;;23.73;33.27;100535.09;4397246;32;20015;-70
2022/03/10 11:25:03;;;;;;;;;;;;;;;22.58;34.95;100548.75;4399303;32;21609;-72
2022/03/10 11:27:33;;;;;;;;;;;;;;;23.03;34.25;100532.91;4394617;32;20665;-71
2022/03/10 11:30:01;;;;;;;;;;;;;;;23.37;33.73;100528.56;4398348;32;20384;-71
2022/03/10 11:32:28;;;;;;;;;;;;;;;23.25;33.91;100523.41;4401324;32;20117;-71
2022/03/10 11:34:56;;;;;;;;;;;;;;;23.23;33.88;100511.66;4398501;32;20023;-71
2022/03/10 11:40:13;;;;;;;;;;;;;;;23.68;33.92;100521.53;3949002;32;15773635;-72
2022/03/10 11:42:39;;;;;;;;;;;;;;;23.68;33.92;100521.53;4420897;32;20024;-73
2022/03/10 11:45:15;;;;;;;;;;;;;;;23.94;33.18;100529.69;4423163;32;20523;-73
2022/03/10 11:47:41;;;;;;;;;;;;;;;23.06;34.20;100520.38;4422385;32;20005;-73
2022/03/10 11:53:00;;;;;;;;;;;;;;;22.94;34.69;100504.53;3950113;32;15737561;-73
2022/03/10 11:55:38;;;;;;;;;;;;;;;23.74;33.53;100510.00;4416288;32;20045;-73
2022/03/10 11:58:05;;;;;;;;;;;;;;;23.69;33.21;100516.56;4426881;32;19969;-73
2022/03/10 12:00:49;;;;;;;;;;;;;;;22.98;34.21;100519.38;4427261;32;19968;-73
2022/03/10 12:06:07;;;;;;;;;;;;;;;23.62;33.37;100503.56;3956383;32;15725663;-73
2022/03/10 12:08:35;;;;;;;;;;;;;;;23.66;33.03;100506.94;4436137;32;19965;-73
2022/03/10 12:11:02;;;;;;;;;;;;;;;23.57;33.33;100503.62;4434669;32;20000;-73
2022/03/10 12:13:29;;;;;;;;;;;;;;;23.79;32.91;100509.16;4437036;32;19981;-73
2022/03/10 12:15:55;;;;;;;;;;;;;;;24.57;31.55;100481.16;4435349;32;19976;-73
2022/03/10 12:18:24;;;;;;;;;;;;;;;24.92;31.09;100495.41;4437961;32;20314;-73
2022/03/10 12:20:53;;;;;;;;;;;;;;;25.41;30.02;100498.91;4436527;32;19993;-73
2022/03/10 12:23:21;;;;;;;;;;;;;;;25.71;29.26;100490.81;4438385;32;20133;-73
2022/03/10 12:25:53;;;;;;;;;;;;;;;25.28;29.60;100488.84;4436749;32;20024;-73
2022/03/10 12:28:21;;;;;;;;;;;;;;;25.78;29.27;100488.09;4436311;32;20075;-73
2022/03/10 12:30:47;;;;;;;;;;;;;;;25.24;29.86;100478.97;4436414;32;20263;-73
2022/03/10 12:33:13;;;;;;;;;;;;;;;26.17;28.71;100487.41;4436609;32;19999;-73
2022/03/10 12:35:41;;;;;;;;;;;;;;;25.79;28.95;100469.44;4436759;32;20807;-74
2022/03/10 12:38:07;;;;;;;;;;;;;;;25.95;28.42;100456.81;4436414;32;19992;-73
2022/03/10 12:40:36;;;;;;;;;;;;;;;25.53;28.83;100465.72;4434910;32;20011;-72
2022/03/10 12:43:03;;;;;;;;;;;;;;;26.21;28.27;100465.56;4428760;32;20617;-72
2022/03/10 12:45:29;;;;;;;;;;;;;;;26.55;27.71;100457.78;4432779;32;19949;-72
2022/03/10 12:48:00;;;;;;;;;;;;;;;27.07;26.90;100457.69;4431217;32;19973;-72
2022/03/10 12:50:28;;;;;;;;;;;;;;;26.84;27.09;100467.41;4437828;32;19967;-73
2022/03/10 12:52:55;;;;;;;;;;;;;;;27.19;26.69;100461.84;4437200;32;19977;-71
2022/03/10 12:55:26;;;;;;;;;;;;;;;27.12;26.63;100447.34;4431258;32;19957;-72
2022/03/10 12:58:00;;;;;;;;;;;;;;;26.39;27.37;100487.75;4435911;32;19960;-72
2022/03/10 13:00:26;;;;;;;;;;;;;;;26.28;27.71;100478.53;4432698;32;19949;-72
2022/03/10 13:02:56;;;;;;;;;;;;;;;26.53;27.34;100460.44;4434273;32;19988;-73
2022/03/10 13:05:22;;;;;;;;;;;;;;;26.77;27.00;100462.31;4435628;32;19977;-72